sensor_id;sensor_type;location;lat;lon;timestamp;P1;durP1;ratioP1;P2;durP2;ratioP2
62832;SDS011;48891;49.220;6.920;2023-12-20T00:01:04;26.25;;;19.30;;
62832;SDS011;48891;49.220;6.920;2023-12-20T00:03:29;24.50;;;19.13;;
62832;SDS011;48891;49.220;6.920;2023-12-20T00:05:54;25.13;;;19.98;;
62832;SDS011;48891;49.220;6.920;2023-12-20T00:08:20;26.52;;;19.98;;
62832;SDS011;48891;49.220;6.920;2023-12-20T00:10:45;25.45;;;20.88;;
62832;SDS011;48891;49.220;6.920;2023-12-20T00:13:10;26.05;;;20.73;;
62832;SDS011;48891;49.220;6.920;2023-12-20T00:15:36;25.70;;;20.05;;
62832;SDS011;48891;49.220;6.920;2023-12-20T00:18:01;25.10;;;19.13;;
62832;SDS011;48891;49.220;6.920;2023-12-20T00:20:27;27.00;;;20.15;;
62832;SDS011;48891;49.220;6.920;2023-12-20T00:22:54;24.65;;;20.63;;
62832;SDS011;48891;49.220;6.920;2023-12-20T00:25:21;25.65;;;20.95;;
62832;SDS011;48891;49.220;6.920;2023-12-20T00:27:46;27.05;;;20.35;;
62832;SDS011;48891;49.220;6.920;2023-12-20T00:30:11;25.52;;;19.88;;
62832;SDS011;48891;49.220;6.920;2023-12-20T00:32:37;27.20;;;20.45;;
62832;SDS011;48891;49.220;6.920;2023-12-20T00:35:02;26.10;;;20.10;;
62832;SDS011;48891;49.220;6.920;2023-12-20T00:37:27;28.63;;;21.33;;
62832;SDS011;48891;49.220;6.920;2023-12-20T00:39:52;28.88;;;21.48;;
62832;SDS011;48891;49.220;6.920;2023-12-20T00:42:18;28.50;;;21.30;;
62832;SDS011;48891;49.220;6.920;2023-12-20T00:44:43;24.75;;;20.33;;
62832;SDS011;48891;49.220;6.920;2023-12-20T00:47:08;27.73;;;21.17;;
62832;SDS011;48891;49.220;6.920;2023-12-20T00:49:33;28.23;;;21.85;;
62832;SDS011;48891;49.220;6.920;2023-12-20T00:51:59;27.23;;;21.15;;
62832;SDS011;48891;49.220;6.920;2023-12-20T00:54:24;27.20;;;20.88;;
62832;SDS011;48891;49.220;6.920;2023-12-20T00:56:49;30.88;;;22.15;;
62832;SDS011;48891;49.220;6.920;2023-12-20T00:59:16;28.23;;;20.77;;
62832;SDS011;48891;49.220;6.920;2023-12-20T01:01:41;28.98;;;22.25;;
62832;SDS011;48891;49.220;6.920;2023-12-20T01:04:06;32.10;;;21.92;;
62832;SDS011;48891;49.220;6.920;2023-12-20T01:06:32;31.20;;;23.75;;
62832;SDS011;48891;49.220;6.920;2023-12-20T01:08:57;30.10;;;22.88;;
62832;SDS011;48891;49.220;6.920;2023-12-20T01:11:22;29.90;;;23.30;;
62832;SDS011;48891;49.220;6.920;2023-12-20T01:13:47;30.73;;;22.92;;
62832;SDS011;48891;49.220;6.920;2023-12-20T01:16:13;31.77;;;23.33;;
62832;SDS011;48891;49.220;6.920;2023-12-20T01:18:38;28.98;;;22.75;;
62832;SDS011;48891;49.220;6.920;2023-12-20T01:21:03;30.17;;;23.83;;
62832;SDS011;48891;49.220;6.920;2023-12-20T01:23:29;33.17;;;24.95;;
62832;SDS011;48891;49.220;6.920;2023-12-20T01:25:54;31.58;;;23.40;;
62832;SDS011;48891;49.220;6.920;2023-12-20T01:28:20;29.88;;;23.13;;
62832;SDS011;48891;49.220;6.920;2023-12-20T01:30:45;29.63;;;23.52;;
62832;SDS011;48891;49.220;6.920;2023-12-20T01:33:10;32.67;;;23.20;;
62832;SDS011;48891;49.220;6.920;2023-12-20T01:35:36;31.75;;;24.92;;
62832;SDS011;48891;49.220;6.920;2023-12-20T01:38:01;31.80;;;23.75;;
62832;SDS011;48891;49.220;6.920;2023-12-20T01:40:26;34.33;;;24.70;;
62832;SDS011;48891;49.220;6.920;2023-12-20T01:42:58;33.00;;;24.90;;
62832;SDS011;48891;49.220;6.920;2023-12-20T01:45:27;32.38;;;23.77;;
62832;SDS011;48891;49.220;6.920;2023-12-20T01:47:52;32.90;;;24.17;;
62832;SDS011;48891;49.220;6.920;2023-12-20T01:50:18;33.53;;;24.25;;
62832;SDS011;48891;49.220;6.920;2023-12-20T01:52:43;33.13;;;25.00;;
62832;SDS011;48891;49.220;6.920;2023-12-20T01:55:09;33.92;;;24.58;;
62832;SDS011;48891;49.220;6.920;2023-12-20T01:57:35;32.25;;;23.75;;
62832;SDS011;48891;49.220;6.920;2023-12-20T02:00:00;30.88;;;24.27;;
62832;SDS011;48891;49.220;6.920;2023-12-20T02:02:26;35.38;;;25.45;;
62832;SDS011;48891;49.220;6.920;2023-12-20T02:04:53;33.95;;;24.60;;
62832;SDS011;48891;49.220;6.920;2023-12-20T02:07:18;34.42;;;25.52;;
62832;SDS011;48891;49.220;6.920;2023-12-20T02:09:46;35.42;;;25.65;;
62832;SDS011;48891;49.220;6.920;2023-12-20T02:12:11;34.47;;;25.70;;
62832;SDS011;48891;49.220;6.920;2023-12-20T02:14:36;33.85;;;24.77;;
62832;SDS011;48891;49.220;6.920;2023-12-20T02:17:02;34.47;;;25.48;;
62832;SDS011;48891;49.220;6.920;2023-12-20T02:19:27;35.58;;;25.52;;
62832;SDS011;48891;49.220;6.920;2023-12-20T02:22:04;34.85;;;25.55;;
62832;SDS011;48891;49.220;6.920;2023-12-20T02:24:36;33.22;;;24.30;;
62832;SDS011;48891;49.220;6.920;2023-12-20T02:27:01;36.15;;;24.90;;
62832;SDS011;48891;49.220;6.920;2023-12-20T02:29:27;33.92;;;25.77;;
62832;SDS011;48891;49.220;6.920;2023-12-20T02:31:52;36.15;;;25.58;;
62832;SDS011;48891;49.220;6.920;2023-12-20T02:34:17;35.13;;;25.77;;
62832;SDS011;48891;49.220;6.920;2023-12-20T02:36:42;34.92;;;25.27;;
62832;SDS011;48891;49.220;6.920;2023-12-20T02:39:08;37.13;;;24.88;;
62832;SDS011;48891;49.220;6.920;2023-12-20T02:41:33;37.03;;;25.05;;
62832;SDS011;48891;49.220;6.920;2023-12-20T02:43:58;35.15;;;25.27;;
62832;SDS011;48891;49.220;6.920;2023-12-20T02:46:24;34.28;;;25.13;;
62832;SDS011;48891;49.220;6.920;2023-12-20T02:48:49;33.90;;;24.77;;
62832;SDS011;48891;49.220;6.920;2023-12-20T02:51:14;38.65;;;25.60;;
62832;SDS011;48891;49.220;6.920;2023-12-20T02:53:39;33.63;;;25.08;;
62832;SDS011;48891;49.220;6.920;2023-12-20T02:56:05;32.72;;;24.63;;
62832;SDS011;48891;49.220;6.920;2023-12-20T02:58:30;37.42;;;26.05;;
62832;SDS011;48891;49.220;6.920;2023-12-20T03:00:55;38.15;;;26.20;;
62832;SDS011;48891;49.220;6.920;2023-12-20T03:03:21;35.10;;;25.17;;
62832;SDS011;48891;49.220;6.920;2023-12-20T03:05:46;35.75;;;26.25;;
62832;SDS011;48891;49.220;6.920;2023-12-20T03:08:11;36.13;;;25.83;;
62832;SDS011;48891;49.220;6.920;2023-12-20T03:10:36;34.22;;;25.52;;
62832;SDS011;48891;49.220;6.920;2023-12-20T03:13:02;36.83;;;26.27;;
62832;SDS011;48891;49.220;6.920;2023-12-20T03:15:27;35.80;;;26.25;;
62832;SDS011;48891;49.220;6.920;2023-12-20T03:17:52;33.47;;;25.58;;
62832;SDS011;48891;49.220;6.920;2023-12-20T03:20:17;35.33;;;25.05;;
62832;SDS011;48891;49.220;6.920;2023-12-20T03:22:43;33.65;;;25.42;;
62832;SDS011;48891;49.220;6.920;2023-12-20T03:25:08;35.35;;;25.35;;
62832;SDS011;48891;49.220;6.920;2023-12-20T03:27:33;38.30;;;27.05;;
62832;SDS011;48891;49.220;6.920;2023-12-20T03:29:58;36.83;;;25.60;;
62832;SDS011;48891;49.220;6.920;2023-12-20T03:32:24;37.70;;;26.85;;
62832;SDS011;48891;49.220;6.920;2023-12-20T03:34:49;35.88;;;26.15;;
62832;SDS011;48891;49.220;6.920;2023-12-20T03:37:14;36.45;;;25.13;;
62832;SDS011;48891;49.220;6.920;2023-12-20T03:39:39;33.80;;;24.63;;
62832;SDS011;48891;49.220;6.920;2023-12-20T03:42:04;37.03;;;27.33;;
62832;SDS011;48891;49.220;6.920;2023-12-20T03:44:30;37.42;;;26.00;;
62832;SDS011;48891;49.220;6.920;2023-12-20T03:46:55;38.08;;;27.52;;
62832;SDS011;48891;49.220;6.920;2023-12-20T03:49:20;38.35;;;26.23;;
62832;SDS011;48891;49.220;6.920;2023-12-20T03:51:46;37.35;;;26.27;;
62832;SDS011;48891;49.220;6.920;2023-12-20T03:54:11;38.22;;;27.23;;
62832;SDS011;48891;49.220;6.920;2023-12-20T03:56:36;36.58;;;27.20;;
62832;SDS011;48891;49.220;6.920;2023-12-20T03:59:01;38.75;;;26.50;;
62832;SDS011;48891;49.220;6.920;2023-12-20T04:01:26;39.75;;;26.95;;
62832;SDS011;48891;49.220;6.920;2023-12-20T04:03:52;36.88;;;26.63;;
62832;SDS011;48891;49.220;6.920;2023-12-20T04:06:17;37.88;;;26.92;;
62832;SDS011;48891;49.220;6.920;2023-12-20T04:08:43;39.13;;;26.70;;
62832;SDS011;48891;49.220;6.920;2023-12-20T04:11:08;37.72;;;27.45;;
62832;SDS011;48891;49.220;6.920;2023-12-20T04:13:33;38.83;;;27.48;;
62832;SDS011;48891;49.220;6.920;2023-12-20T04:15:59;39.40;;;27.75;;
62832;SDS011;48891;49.220;6.920;2023-12-20T04:18:24;39.08;;;27.13;;
62832;SDS011;48891;49.220;6.920;2023-12-20T04:20:49;35.03;;;26.30;;
62832;SDS011;48891;49.220;6.920;2023-12-20T04:23:14;38.63;;;27.40;;
62832;SDS011;48891;49.220;6.920;2023-12-20T04:25:39;37.33;;;26.88;;
62832;SDS011;48891;49.220;6.920;2023-12-20T04:28:05;41.25;;;28.38;;
62832;SDS011;48891;49.220;6.920;2023-12-20T04:30:30;39.25;;;27.38;;
62832;SDS011;48891;49.220;6.920;2023-12-20T04:32:55;38.17;;;27.27;;
62832;SDS011;48891;49.220;6.920;2023-12-20T04:35:20;39.00;;;27.90;;
62832;SDS011;48891;49.220;6.920;2023-12-20T04:37:46;37.88;;;28.42;;
62832;SDS011;48891;49.220;6.920;2023-12-20T04:40:11;37.15;;;27.92;;
62832;SDS011;48891;49.220;6.920;2023-12-20T04:42:36;38.25;;;27.67;;
62832;SDS011;48891;49.220;6.920;2023-12-20T04:45:02;41.65;;;29.40;;
62832;SDS011;48891;49.220;6.920;2023-12-20T04:47:27;41.40;;;29.42;;
62832;SDS011;48891;49.220;6.920;2023-12-20T04:49:52;40.13;;;28.35;;
62832;SDS011;48891;49.220;6.920;2023-12-20T04:52:17;39.80;;;28.73;;
62832;SDS011;48891;49.220;6.920;2023-12-20T04:54:43;41.08;;;28.85;;
62832;SDS011;48891;49.220;6.920;2023-12-20T04:57:08;39.78;;;28.20;;
62832;SDS011;48891;49.220;6.920;2023-12-20T04:59:33;40.35;;;27.92;;
62832;SDS011;48891;49.220;6.920;2023-12-20T05:01:58;44.97;;;30.58;;
62832;SDS011;48891;49.220;6.920;2023-12-20T05:04:24;40.42;;;29.08;;
62832;SDS011;48891;49.220;6.920;2023-12-20T05:06:49;43.17;;;30.40;;
62832;SDS011;48891;49.220;6.920;2023-12-20T05:09:14;41.50;;;28.98;;
62832;SDS011;48891;49.220;6.920;2023-12-20T05:11:39;41.03;;;29.80;;
62832;SDS011;48891;49.220;6.920;2023-12-20T05:14:05;40.55;;;28.50;;
62832;SDS011;48891;49.220;6.920;2023-12-20T05:16:30;41.50;;;29.95;;
62832;SDS011;48891;49.220;6.920;2023-12-20T05:18:55;42.33;;;29.95;;
62832;SDS011;48891;49.220;6.920;2023-12-20T05:21:20;40.38;;;30.15;;
62832;SDS011;48891;49.220;6.920;2023-12-20T05:23:46;43.28;;;29.73;;
62832;SDS011;48891;49.220;6.920;2023-12-20T05:26:11;43.58;;;29.23;;
62832;SDS011;48891;49.220;6.920;2023-12-20T05:28:36;40.55;;;28.65;;
62832;SDS011;48891;49.220;6.920;2023-12-20T05:31:01;41.10;;;28.95;;
62832;SDS011;48891;49.220;6.920;2023-12-20T05:33:27;43.13;;;29.73;;
62832;SDS011;48891;49.220;6.920;2023-12-20T05:35:52;45.33;;;29.98;;
62832;SDS011;48891;49.220;6.920;2023-12-20T05:38:17;42.42;;;30.15;;
62832;SDS011;48891;49.220;6.920;2023-12-20T05:40:42;39.35;;;29.13;;
62832;SDS011;48891;49.220;6.920;2023-12-20T05:43:08;41.70;;;28.60;;
62832;SDS011;48891;49.220;6.920;2023-12-20T05:45:33;41.72;;;29.10;;
62832;SDS011;48891;49.220;6.920;2023-12-20T05:47:58;40.25;;;28.80;;
62832;SDS011;48891;49.220;6.920;2023-12-20T05:50:23;41.45;;;28.63;;
62832;SDS011;48891;49.220;6.920;2023-12-20T05:52:49;40.35;;;29.60;;
62832;SDS011;48891;49.220;6.920;2023-12-20T05:55:14;39.97;;;28.20;;
62832;SDS011;48891;49.220;6.920;2023-12-20T05:57:39;42.45;;;29.73;;
62832;SDS011;48891;49.220;6.920;2023-12-20T06:00:04;41.90;;;28.60;;
62832;SDS011;48891;49.220;6.920;2023-12-20T06:02:30;41.40;;;27.77;;
62832;SDS011;48891;49.220;6.920;2023-12-20T06:04:55;40.67;;;28.30;;
62832;SDS011;48891;49.220;6.920;2023-12-20T06:07:21;39.20;;;27.02;;
62832;SDS011;48891;49.220;6.920;2023-12-20T06:09:46;39.78;;;27.83;;
62832;SDS011;48891;49.220;6.920;2023-12-20T06:12:11;41.97;;;28.17;;
62832;SDS011;48891;49.220;6.920;2023-12-20T06:14:36;39.13;;;28.60;;
62832;SDS011;48891;49.220;6.920;2023-12-20T06:17:02;42.38;;;28.55;;
62832;SDS011;48891;49.220;6.920;2023-12-20T06:19:27;38.67;;;28.27;;
62832;SDS011;48891;49.220;6.920;2023-12-20T06:21:53;41.20;;;27.83;;
62832;SDS011;48891;49.220;6.920;2023-12-20T06:24:18;41.70;;;28.23;;
62832;SDS011;48891;49.220;6.920;2023-12-20T06:26:43;40.25;;;27.75;;
62832;SDS011;48891;49.220;6.920;2023-12-20T06:29:09;41.97;;;28.35;;
62832;SDS011;48891;49.220;6.920;2023-12-20T06:31:34;40.95;;;27.83;;
62832;SDS011;48891;49.220;6.920;2023-12-20T06:33:59;39.17;;;27.17;;
62832;SDS011;48891;49.220;6.920;2023-12-20T06:36:28;38.60;;;27.42;;
62832;SDS011;48891;49.220;6.920;2023-12-20T06:38:53;40.83;;;28.20;;
62832;SDS011;48891;49.220;6.920;2023-12-20T06:41:18;36.65;;;25.83;;
62832;SDS011;48891;49.220;6.920;2023-12-20T06:43:44;38.65;;;26.90;;
62832;SDS011;48891;49.220;6.920;2023-12-20T06:46:09;37.00;;;26.05;;
62832;SDS011;48891;49.220;6.920;2023-12-20T06:48:34;38.03;;;26.00;;
62832;SDS011;48891;49.220;6.920;2023-12-20T06:51:00;36.05;;;26.63;;
62832;SDS011;48891;49.220;6.920;2023-12-20T06:53:26;38.67;;;26.83;;
62832;SDS011;48891;49.220;6.920;2023-12-20T06:55:51;38.15;;;26.92;;
62832;SDS011;48891;49.220;6.920;2023-12-20T06:58:16;34.53;;;24.65;;
62832;SDS011;48891;49.220;6.920;2023-12-20T07:00:42;36.58;;;24.67;;
62832;SDS011;48891;49.220;6.920;2023-12-20T07:03:07;40.13;;;26.17;;
62832;SDS011;48891;49.220;6.920;2023-12-20T07:05:33;37.13;;;26.73;;
62832;SDS011;48891;49.220;6.920;2023-12-20T07:07:59;38.15;;;25.77;;
62832;SDS011;48891;49.220;6.920;2023-12-20T07:10:24;37.30;;;25.40;;
62832;SDS011;48891;49.220;6.920;2023-12-20T07:12:49;38.78;;;26.42;;
62832;SDS011;48891;49.220;6.920;2023-12-20T07:15:14;40.85;;;25.50;;
62832;SDS011;48891;49.220;6.920;2023-12-20T07:17:40;37.00;;;26.10;;
62832;SDS011;48891;49.220;6.920;2023-12-20T07:20:05;36.90;;;25.00;;
62832;SDS011;48891;49.220;6.920;2023-12-20T07:22:31;36.85;;;25.45;;
62832;SDS011;48891;49.220;6.920;2023-12-20T07:24:56;34.85;;;24.77;;
62832;SDS011;48891;49.220;6.920;2023-12-20T07:27:21;33.47;;;23.77;;
62832;SDS011;48891;49.220;6.920;2023-12-20T07:29:47;38.03;;;24.92;;
62832;SDS011;48891;49.220;6.920;2023-12-20T07:32:12;35.80;;;24.88;;
62832;SDS011;48891;49.220;6.920;2023-12-20T07:34:37;37.40;;;26.15;;
62832;SDS011;48891;49.220;6.920;2023-12-20T07:37:02;36.58;;;25.80;;
62832;SDS011;48891;49.220;6.920;2023-12-20T07:39:28;35.65;;;24.60;;
62832;SDS011;48891;49.220;6.920;2023-12-20T07:41:53;35.13;;;23.73;;
62832;SDS011;48891;49.220;6.920;2023-12-20T07:44:18;35.75;;;24.38;;
62832;SDS011;48891;49.220;6.920;2023-12-20T07:46:44;35.25;;;22.83;;
62832;SDS011;48891;49.220;6.920;2023-12-20T07:49:09;37.30;;;24.45;;
62832;SDS011;48891;49.220;6.920;2023-12-20T07:51:34;38.03;;;24.75;;
62832;SDS011;48891;49.220;6.920;2023-12-20T07:53:59;32.83;;;22.13;;
62832;SDS011;48891;49.220;6.920;2023-12-20T07:56:24;34.33;;;22.27;;
62832;SDS011;48891;49.220;6.920;2023-12-20T07:58:50;36.20;;;23.35;;
62832;SDS011;48891;49.220;6.920;2023-12-20T08:01:15;31.45;;;22.35;;
62832;SDS011;48891;49.220;6.920;2023-12-20T08:03:41;31.88;;;22.70;;
62832;SDS011;48891;49.220;6.920;2023-12-20T08:06:06;33.10;;;22.55;;
62832;SDS011;48891;49.220;6.920;2023-12-20T08:08:32;33.42;;;22.65;;
62832;SDS011;48891;49.220;6.920;2023-12-20T08:10:57;32.53;;;20.73;;
62832;SDS011;48891;49.220;6.920;2023-12-20T08:13:22;31.65;;;21.90;;
62832;SDS011;48891;49.220;6.920;2023-12-20T08:15:47;31.77;;;21.50;;
62832;SDS011;48891;49.220;6.920;2023-12-20T08:18:12;32.50;;;21.20;;
62832;SDS011;48891;49.220;6.920;2023-12-20T08:20:38;30.83;;;20.73;;
62832;SDS011;48891;49.220;6.920;2023-12-20T08:23:03;31.02;;;20.67;;
62832;SDS011;48891;49.220;6.920;2023-12-20T08:25:28;30.98;;;20.80;;
62832;SDS011;48891;49.220;6.920;2023-12-20T08:27:54;32.53;;;20.60;;
62832;SDS011;48891;49.220;6.920;2023-12-20T08:30:19;30.35;;;20.70;;
62832;SDS011;48891;49.220;6.920;2023-12-20T08:32:44;29.95;;;20.40;;
62832;SDS011;48891;49.220;6.920;2023-12-20T08:35:09;30.80;;;19.65;;
62832;SDS011;48891;49.220;6.920;2023-12-20T08:37:34;28.65;;;19.90;;
62832;SDS011;48891;49.220;6.920;2023-12-20T08:40:00;31.33;;;20.38;;
62832;SDS011;48891;49.220;6.920;2023-12-20T08:42:25;29.25;;;19.73;;
62832;SDS011;48891;49.220;6.920;2023-12-20T08:44:50;30.70;;;20.40;;
62832;SDS011;48891;49.220;6.920;2023-12-20T08:47:15;31.98;;;20.40;;
62832;SDS011;48891;49.220;6.920;2023-12-20T08:49:41;26.58;;;17.83;;
62832;SDS011;48891;49.220;6.920;2023-12-20T08:52:06;26.00;;;18.88;;
62832;SDS011;48891;49.220;6.920;2023-12-20T08:54:31;27.85;;;18.90;;
62832;SDS011;48891;49.220;6.920;2023-12-20T08:56:56;25.50;;;18.70;;
62832;SDS011;48891;49.220;6.920;2023-12-20T08:59:22;27.95;;;18.65;;
62832;SDS011;48891;49.220;6.920;2023-12-20T09:01:47;28.25;;;18.40;;
62832;SDS011;48891;49.220;6.920;2023-12-20T09:04:12;26.80;;;18.38;;
62832;SDS011;48891;49.220;6.920;2023-12-20T09:06:37;25.35;;;18.38;;
62832;SDS011;48891;49.220;6.920;2023-12-20T09:09:02;26.77;;;17.63;;
62832;SDS011;48891;49.220;6.920;2023-12-20T09:11:28;27.65;;;19.23;;
62832;SDS011;48891;49.220;6.920;2023-12-20T09:13:53;26.88;;;18.73;;
62832;SDS011;48891;49.220;6.920;2023-12-20T09:16:18;26.73;;;18.00;;
62832;SDS011;48891;49.220;6.920;2023-12-20T09:18:44;26.67;;;16.70;;
62832;SDS011;48891;49.220;6.920;2023-12-20T09:21:09;24.88;;;17.13;;
62832;SDS011;48891;49.220;6.920;2023-12-20T09:23:34;28.58;;;17.48;;
62832;SDS011;48891;49.220;6.920;2023-12-20T09:25:59;24.50;;;16.85;;
62832;SDS011;48891;49.220;6.920;2023-12-20T09:28:25;26.63;;;16.88;;
62832;SDS011;48891;49.220;6.920;2023-12-20T09:30:50;24.40;;;16.67;;
62832;SDS011;48891;49.220;6.920;2023-12-20T09:33:15;25.02;;;16.95;;
62832;SDS011;48891;49.220;6.920;2023-12-20T09:35:40;24.35;;;16.38;;
62832;SDS011;48891;49.220;6.920;2023-12-20T09:38:06;21.00;;;14.95;;
62832;SDS011;48891;49.220;6.920;2023-12-20T09:40:32;23.65;;;16.35;;
62832;SDS011;48891;49.220;6.920;2023-12-20T09:42:58;22.73;;;15.15;;
62832;SDS011;48891;49.220;6.920;2023-12-20T09:45:45;26.00;;;16.80;;
62832;SDS011;48891;49.220;6.920;2023-12-20T09:48:11;22.57;;;15.77;;
62832;SDS011;48891;49.220;6.920;2023-12-20T09:50:38;23.30;;;15.73;;
62832;SDS011;48891;49.220;6.920;2023-12-20T09:53:03;24.80;;;15.80;;
62832;SDS011;48891;49.220;6.920;2023-12-20T09:55:30;22.73;;;15.02;;
62832;SDS011;48891;49.220;6.920;2023-12-20T09:57:57;24.73;;;15.73;;
62832;SDS011;48891;49.220;6.920;2023-12-20T10:00:22;21.95;;;15.35;;
62832;SDS011;48891;49.220;6.920;2023-12-20T10:02:50;23.05;;;14.43;;
62832;SDS011;48891;49.220;6.920;2023-12-20T10:05:21;20.80;;;14.35;;
62832;SDS011;48891;49.220;6.920;2023-12-20T10:07:54;22.92;;;14.55;;
62832;SDS011;48891;49.220;6.920;2023-12-20T10:10:20;19.67;;;13.82;;
62832;SDS011;48891;49.220;6.920;2023-12-20T10:13:04;20.95;;;13.93;;
62832;SDS011;48891;49.220;6.920;2023-12-20T10:15:31;21.63;;;14.25;;
62832;SDS011;48891;49.220;6.920;2023-12-20T10:17:57;21.42;;;13.50;;
62832;SDS011;48891;49.220;6.920;2023-12-20T10:20:23;21.58;;;13.52;;
62832;SDS011;48891;49.220;6.920;2023-12-20T10:22:48;21.13;;;13.65;;
62832;SDS011;48891;49.220;6.920;2023-12-20T10:25:14;19.77;;;14.00;;
62832;SDS011;48891;49.220;6.920;2023-12-20T10:27:39;20.67;;;13.23;;
62832;SDS011;48891;49.220;6.920;2023-12-20T10:30:05;20.50;;;13.52;;
62832;SDS011;48891;49.220;6.920;2023-12-20T10:32:30;19.92;;;13.63;;
62832;SDS011;48891;49.220;6.920;2023-12-20T10:34:56;18.30;;;12.55;;
62832;SDS011;48891;49.220;6.920;2023-12-20T10:37:21;19.98;;;13.45;;
62832;SDS011;48891;49.220;6.920;2023-12-20T10:39:50;18.88;;;12.70;;
62832;SDS011;48891;49.220;6.920;2023-12-20T10:42:17;18.70;;;13.13;;
62832;SDS011;48891;49.220;6.920;2023-12-20T10:44:46;18.08;;;11.77;;
62832;SDS011;48891;49.220;6.920;2023-12-20T10:47:11;19.67;;;12.23;;
62832;SDS011;48891;49.220;6.920;2023-12-20T10:49:38;17.38;;;12.02;;
62832;SDS011;48891;49.220;6.920;2023-12-20T10:52:04;19.75;;;12.90;;
62832;SDS011;48891;49.220;6.920;2023-12-20T10:54:30;19.45;;;12.80;;
62832;SDS011;48891;49.220;6.920;2023-12-20T10:56:56;19.15;;;12.43;;
62832;SDS011;48891;49.220;6.920;2023-12-20T10:59:22;18.70;;;12.43;;
62832;SDS011;48891;49.220;6.920;2023-12-20T11:01:49;18.67;;;12.77;;
62832;SDS011;48891;49.220;6.920;2023-12-20T11:04:15;18.15;;;12.10;;
62832;SDS011;48891;49.220;6.920;2023-12-20T11:06:52;17.52;;;11.95;;
62832;SDS011;48891;49.220;6.920;2023-12-20T11:09:31;17.30;;;12.13;;
62832;SDS011;48891;49.220;6.920;2023-12-20T11:14:46;18.73;;;12.60;;
62832;SDS011;48891;49.220;6.920;2023-12-20T11:17:14;20.80;;;12.52;;
62832;SDS011;48891;49.220;6.920;2023-12-20T11:22:26;18.38;;;12.63;;
62832;SDS011;48891;49.220;6.920;2023-12-20T11:24:54;18.67;;;12.20;;
62832;SDS011;48891;49.220;6.920;2023-12-20T11:27:23;20.10;;;12.88;;
62832;SDS011;48891;49.220;6.920;2023-12-20T11:29:52;17.58;;;12.43;;
62832;SDS011;48891;49.220;6.920;2023-12-20T11:34:53;19.10;;;12.27;;
62832;SDS011;48891;49.220;6.920;2023-12-20T11:37:19;17.65;;;12.45;;
62832;SDS011;48891;49.220;6.920;2023-12-20T11:39:45;17.00;;;12.45;;
62832;SDS011;48891;49.220;6.920;2023-12-20T11:42:10;20.80;;;13.05;;
62832;SDS011;48891;49.220;6.920;2023-12-20T11:44:38;21.42;;;12.65;;
62832;SDS011;48891;49.220;6.920;2023-12-20T11:47:04;19.95;;;13.18;;
62832;SDS011;48891;49.220;6.920;2023-12-20T11:49:29;19.58;;;13.35;;
62832;SDS011;48891;49.220;6.920;2023-12-20T11:51:54;21.17;;;13.57;;
62832;SDS011;48891;49.220;6.920;2023-12-20T11:54:20;19.45;;;13.40;;
62832;SDS011;48891;49.220;6.920;2023-12-20T11:56:45;19.08;;;13.40;;
62832;SDS011;48891;49.220;6.920;2023-12-20T11:59:12;16.90;;;12.68;;
62832;SDS011;48891;49.220;6.920;2023-12-20T12:01:37;21.70;;;14.25;;
62832;SDS011;48891;49.220;6.920;2023-12-20T12:04:06;20.08;;;12.70;;
62832;SDS011;48891;49.220;6.920;2023-12-20T12:06:31;21.25;;;13.63;;
62832;SDS011;48891;49.220;6.920;2023-12-20T12:08:57;21.88;;;14.27;;
62832;SDS011;48891;49.220;6.920;2023-12-20T12:11:22;20.35;;;13.75;;
62832;SDS011;48891;49.220;6.920;2023-12-20T12:13:48;21.20;;;14.23;;
62832;SDS011;48891;49.220;6.920;2023-12-20T12:16:17;19.10;;;13.25;;
62832;SDS011;48891;49.220;6.920;2023-12-20T12:18:42;19.15;;;13.30;;
62832;SDS011;48891;49.220;6.920;2023-12-20T12:21:08;20.10;;;13.77;;
62832;SDS011;48891;49.220;6.920;2023-12-20T12:23:33;21.08;;;12.90;;
62832;SDS011;48891;49.220;6.920;2023-12-20T12:25:58;17.40;;;12.80;;
62832;SDS011;48891;49.220;6.920;2023-12-20T12:28:25;20.83;;;14.05;;
62832;SDS011;48891;49.220;6.920;2023-12-20T12:30:58;18.83;;;13.48;;
62832;SDS011;48891;49.220;6.920;2023-12-20T12:33:26;22.40;;;13.98;;
62832;SDS011;48891;49.220;6.920;2023-12-20T12:35:52;20.10;;;14.65;;
62832;SDS011;48891;49.220;6.920;2023-12-20T12:38:21;20.95;;;15.50;;
62832;SDS011;48891;49.220;6.920;2023-12-20T12:40:47;19.38;;;15.07;;
62832;SDS011;48891;49.220;6.920;2023-12-20T12:43:12;20.60;;;14.75;;
62832;SDS011;48891;49.220;6.920;2023-12-20T12:45:38;22.90;;;15.10;;
62832;SDS011;48891;49.220;6.920;2023-12-20T12:48:03;20.27;;;14.23;;
62832;SDS011;48891;49.220;6.920;2023-12-20T12:50:30;22.83;;;15.43;;
62832;SDS011;48891;49.220;6.920;2023-12-20T12:52:55;19.50;;;14.20;;
62832;SDS011;48891;49.220;6.920;2023-12-20T12:55:21;21.88;;;15.07;;
62832;SDS011;48891;49.220;6.920;2023-12-20T12:57:46;24.40;;;16.02;;
62832;SDS011;48891;49.220;6.920;2023-12-20T13:00:11;21.30;;;15.68;;
62832;SDS011;48891;49.220;6.920;2023-12-20T13:02:37;22.95;;;16.02;;
62832;SDS011;48891;49.220;6.920;2023-12-20T13:05:02;21.35;;;15.73;;
62832;SDS011;48891;49.220;6.920;2023-12-20T13:07:27;21.58;;;15.07;;
62832;SDS011;48891;49.220;6.920;2023-12-20T13:09:52;23.80;;;16.15;;
62832;SDS011;48891;49.220;6.920;2023-12-20T13:12:18;21.95;;;15.55;;
62832;SDS011;48891;49.220;6.920;2023-12-20T13:14:43;23.77;;;16.63;;
62832;SDS011;48891;49.220;6.920;2023-12-20T13:17:08;21.27;;;15.88;;
62832;SDS011;48891;49.220;6.920;2023-12-20T13:19:34;22.52;;;16.48;;
62832;SDS011;48891;49.220;6.920;2023-12-20T13:21:59;24.63;;;16.00;;
62832;SDS011;48891;49.220;6.920;2023-12-20T13:24:24;21.77;;;15.48;;
62832;SDS011;48891;49.220;6.920;2023-12-20T13:26:49;22.45;;;15.88;;
62832;SDS011;48891;49.220;6.920;2023-12-20T13:29:15;24.25;;;17.52;;
62832;SDS011;48891;49.220;6.920;2023-12-20T13:31:40;23.55;;;15.82;;
62832;SDS011;48891;49.220;6.920;2023-12-20T13:34:06;20.63;;;15.60;;
62832;SDS011;48891;49.220;6.920;2023-12-20T13:36:31;23.02;;;17.17;;
62832;SDS011;48891;49.220;6.920;2023-12-20T13:38:57;22.67;;;16.33;;
62832;SDS011;48891;49.220;6.920;2023-12-20T13:41:22;23.70;;;17.55;;
62832;SDS011;48891;49.220;6.920;2023-12-20T13:43:47;23.67;;;15.57;;
62832;SDS011;48891;49.220;6.920;2023-12-20T13:46:13;23.40;;;17.15;;
62832;SDS011;48891;49.220;6.920;2023-12-20T13:48:38;23.33;;;17.08;;
62832;SDS011;48891;49.220;6.920;2023-12-20T13:51:03;21.42;;;16.67;;
62832;SDS011;48891;49.220;6.920;2023-12-20T13:53:28;24.02;;;16.23;;
62832;SDS011;48891;49.220;6.920;2023-12-20T13:55:54;22.02;;;16.67;;
62832;SDS011;48891;49.220;6.920;2023-12-20T13:58:19;20.65;;;16.88;;
62832;SDS011;48891;49.220;6.920;2023-12-20T14:00:44;22.80;;;16.85;;
62832;SDS011;48891;49.220;6.920;2023-12-20T14:03:10;25.52;;;17.55;;
62832;SDS011;48891;49.220;6.920;2023-12-20T14:05:35;27.10;;;16.92;;
62832;SDS011;48891;49.220;6.920;2023-12-20T14:08:00;24.05;;;17.88;;
62832;SDS011;48891;49.220;6.920;2023-12-20T14:10:25;22.95;;;17.13;;
62832;SDS011;48891;49.220;6.920;2023-12-20T14:12:51;24.73;;;18.05;;
62832;SDS011;48891;49.220;6.920;2023-12-20T14:15:16;24.38;;;16.95;;
62832;SDS011;48891;49.220;6.920;2023-12-20T14:17:42;25.08;;;17.73;;
62832;SDS011;48891;49.220;6.920;2023-12-20T14:20:07;23.10;;;17.85;;